地図

経路データ

SID SEASON NUMBER BASIN SUBBASIN NAME ISO_TIME NATURE LAT LON WMO_WIND WMO_PRES WMO_AGENCY TRACK_TYPE DIST2LAND LANDFALL IFLAG USA_AGENCY USA_ATCF_ID USA_LAT USA_LON USA_RECORD USA_STATUS USA_WIND USA_PRES USA_SSHS USA_R34_NE USA_R34_SE USA_R34_SW USA_R34_NW USA_R50_NE USA_R50_SE USA_R50_SW USA_R50_NW USA_R64_NE USA_R64_SE USA_R64_SW USA_R64_NW USA_POCI USA_ROCI USA_RMW USA_EYE TOKYO_LAT TOKYO_LON TOKYO_GRADE TOKYO_WIND TOKYO_PRES TOKYO_R50_DIR TOKYO_R50_LONG TOKYO_R50_SHORT TOKYO_R30_DIR TOKYO_R30_LONG TOKYO_R30_SHORT TOKYO_LAND CMA_LAT CMA_LON CMA_CAT CMA_WIND CMA_PRES HKO_LAT HKO_LON HKO_CAT HKO_WIND HKO_PRES NEWDELHI_LAT NEWDELHI_LON NEWDELHI_GRADE NEWDELHI_WIND NEWDELHI_PRES NEWDELHI_CI NEWDELHI_DP NEWDELHI_POCI REUNION_LAT REUNION_LON REUNION_TYPE REUNION_WIND REUNION_PRES REUNION_TNUM REUNION_CI REUNION_RMW REUNION_R34_NE REUNION_R34_SE REUNION_R34_SW REUNION_R34_NW REUNION_R50_NE REUNION_R50_SE REUNION_R50_SW REUNION_R50_NW REUNION_R64_NE REUNION_R64_SE REUNION_R64_SW REUNION_R64_NW BOM_LAT BOM_LON BOM_TYPE BOM_WIND BOM_PRES BOM_TNUM BOM_CI BOM_RMW BOM_R34_NE BOM_R34_SE BOM_R34_SW BOM_R34_NW BOM_R50_NE BOM_R50_SE BOM_R50_SW BOM_R50_NW BOM_R64_NE BOM_R64_SE BOM_R64_SW BOM_R64_NW BOM_ROCI BOM_POCI BOM_EYE BOM_POS_METHOD BOM_PRES_METHOD NADI_LAT NADI_LON NADI_CAT NADI_WIND NADI_PRES WELLINGTON_LAT WELLINGTON_LON WELLINGTON_WIND WELLINGTON_PRES DS824_LAT DS824_LON DS824_STAGE DS824_WIND DS824_PRES TD9636_LAT TD9636_LON TD9636_STAGE TD9636_WIND TD9636_PRES TD9635_LAT TD9635_LON TD9635_WIND TD9635_PRES TD9635_ROCI NEUMANN_LAT NEUMANN_LON NEUMANN_CLASS NEUMANN_WIND NEUMANN_PRES MLC_LAT MLC_LON MLC_CLASS MLC_WIND MLC_PRES USA_GUST BOM_GUST BOM_GUST_PER REUNION_GUST REUNION_GUST_PER USA_SEAHGT USA_SEARAD_NE USA_SEARAD_SE USA_SEARAD_SW USA_SEARAD_NW STORM_SPEED STORM_DIR
1957268N12198 1957 65 EP CP NOT_NAMED 1957-09-25 00:00:00 TS 12.0000 -162.000 45 hurdat_epa main 1025 1025 O________O____ hurdat_epa CP021957 12.0000 -162.000 TS 45 0 12.0000 -162.000 TC 45 10 282
1957268N12198 1957 65 EP CP NOT_NAMED 1957-09-25 03:00:00 TS 12.1102 -162.510 main 1053 1053 P________P____ CP021957 12.1102 -162.510 TS 45 0 12.1102 -162.510 TC 45 10 282
1957268N12198 1957 65 EP CP NOT_NAMED 1957-09-25 06:00:00 TS 12.2000 -163.000 45 hurdat_epa main 1083 1083 O________O____ hurdat_epa CP021957 12.2000 -163.000 TS 45 0 12.2000 -163.000 TC 45 9 279
1957268N12198 1957 65 EP CP NOT_NAMED 1957-09-25 09:00:00 TS 12.2574 -163.458 main 1113 1113 P________P____ CP021957 12.2574 -163.458 TS 45 0 12.2574 -163.458 TC 45 9 276
1957268N12198 1957 65 EP CP NOT_NAMED 1957-09-25 12:00:00 TS 12.3000 -163.900 45 hurdat_epa main 1145 1145 O________O____ hurdat_epa CP021957 12.3000 -163.900 TS 45 0 12.3000 -163.900 TC 45 9 276
1957268N12198 1957 65 EP CP NOT_NAMED 1957-09-25 15:00:00 TS 12.3498 -164.328 main 1177 1177 P________P____ CP021957 12.3498 -164.328 TS 45 0 12.3498 -164.328 TC 45 9 276
1957268N12198 1957 65 EP CP NOT_NAMED 1957-09-25 18:00:00 TS 12.4000 -164.800 45 hurdat_epa main 1198 1198 O________O____ hurdat_epa CP021957 12.4000 -164.800 TS 45 0 12.4000 -164.800 TC 45 11 276
1957268N12198 1957 65 EP CP NOT_NAMED 1957-09-25 21:00:00 TS 12.4576 -165.400 main 1217 1217 P________P____ CP021957 12.4576 -165.400 TS 45 0 12.4576 -165.400 TC 45 12 275
1957268N12198 1957 65 EP CP NOT_NAMED 1957-09-26 00:00:00 TS 12.5000 -166.000 45 hurdat_epa main 1249 1249 O________O____ hurdat_epa CP021957 12.5000 -166.000 TS 45 0 12.5000 -166.000 TC 45 10 272
1957268N12198 1957 65 EP CP NOT_NAMED 1957-09-26 03:00:00 TS 12.4998 -166.465 main 1278 1278 P________P____ CP021957 12.4998 -166.465 TS 45 0 12.4998 -166.465 TC 45 9 270
1957268N12198 1957 65 EP CP NOT_NAMED 1957-09-26 06:00:00 TS 12.5000 -166.900 45 hurdat_epa main 1302 1302 O________O____ hurdat_epa CP021957 12.5000 -166.900 TS 45 0 12.5000 -166.900 TC 45 9 273
1957268N12198 1957 65 EP CP NOT_NAMED 1957-09-26 09:00:00 TS 12.5499 -167.392 main 1334 1325 P________P____ CP021957 12.5499 -167.392 TS 45 0 12.5499 -167.392 TC 45 10 276
1957268N12198 1957 65 EP CP NOT_NAMED 1957-09-26 12:00:00 TS 12.6000 -167.900 45 hurdat_epa main 1357 1357 O________O____ hurdat_epa CP021957 12.6000 -167.900 TS 45 0 12.6000 -167.900 TC 45 10 273
1957268N12198 1957 65 EP CP NOT_NAMED 1957-09-26 15:00:00 TS 12.6074 -168.393 main 1392 1392 P________P____ CP021957 12.6074 -168.393 TS 45 0 12.6074 -168.393 TC 45 10 270
1957268N12198 1957 65 EP CP NOT_NAMED 1957-09-26 18:00:00 TS 12.6000 -168.900 45 hurdat_epa main 1427 1427 O________O____ hurdat_epa CP021957 12.6000 -168.900 TS 45 0 12.6000 -168.900 TC 45 10 270
1957268N12198 1957 65 EP CP NOT_NAMED 1957-09-26 21:00:00 TS 12.5999 -169.443 main 1463 1463 P________P____ CP021957 12.5999 -169.443 TS 45 0 12.5999 -169.443 TC 45 11 270
1957268N12198 1957 65 EP CP NOT_NAMED 1957-09-27 00:00:00 TS 12.6000 -170.000 45 hurdat_epa main 1508 1508 O________O____ hurdat_epa CP021957 12.6000 -170.000 TS 45 0 12.6000 -170.000 TC 45 11 270
1957268N12198 1957 65 EP CP NOT_NAMED 1957-09-27 03:00:00 TS 12.5924 -170.550 main 1554 1554 P________P____ CP021957 12.5924 -170.550 TS 45 0 12.5924 -170.550 TC 45 11 270
1957268N12198 1957 65 EP CP NOT_NAMED 1957-09-27 06:00:00 TS 12.6000 -171.100 45 hurdat_epa main 1594 1594 O________O____ hurdat_epa CP021957 12.6000 -171.100 TS 45 0 12.6000 -171.100 TC 45 11 273
1957268N12198 1957 65 EP CP NOT_NAMED 1957-09-27 09:00:00 TS 12.6498 -171.635 main 1634 1634 P________P____ CP021957 12.6498 -171.635 TS 35 0 12.6498 -171.635 TC 35 11 275
1957268N12198 1957 65 EP CP NOT_NAMED 1957-09-27 12:00:00 TS 12.7000 -172.200 25 hurdat_epa main 1676 1676 O________O____ hurdat_epa CP021957 12.7000 -172.200 TD 25 -1 12.7000 -172.200 TC 25 11 273
1957268N12198 1957 65 EP CP NOT_NAMED 1957-09-27 15:00:00 TS 12.7070 -172.783 main 1726 1726 P________P____ CP021957 12.7070 -172.783 TD 25 -1 12.7070 -172.783 TC 25 13 270
1957268N12198 1957 65 EP CP NOT_NAMED 1957-09-27 18:00:00 TS 12.7000 -173.500 25 hurdat_epa main 1786 1786 O________O____ hurdat_epa CP021957 12.7000 -173.500 TD 25 -1 12.7000 -173.500 TC 25 16 270
1957268N12198 1957 65 EP CP NOT_NAMED 1957-09-27 21:00:00 TS 12.6987 -174.435 main 1864 1864 P________P____ CP021957 12.6987 -174.435 TD 25 -1 12.6987 -174.435 TC 25 20 270
1957268N12198 1957 65 EP CP NOT_NAMED 1957-09-28 00:00:00 TS 12.7000 -175.500 25 hurdat_epa main 1962 O________O____ hurdat_epa CP021957 12.7000 -175.500 TD 25 -1 12.7000 -175.500 TC 25 21 270

IBTrACS Databaseについて

本データベースは、米国NOAAが公開する1842年以降の世界の熱帯低気圧のベストトラックデータアーカイブInternational Best Track Archive for Climate Stewardship (IBTrACS)を、ウェブで閲覧しやすい形式に変換したものです。

最終更新日:2021-11-26